Time;durP1;ratioP1;P1;durP2;ratioP2;P2;SDS_P1;SDS_P2;PMS_P1;PMS_P2;Temp;Humidity;BMP_temperature;BMP_pressure;BME280_temperature;BME280_humidity;BME280_pressure;Samples;Min_cycle;Max_cycle;Signal;HPM_P1;HPM_P2
2022/01/03 00:01:30;;;;;;;8.05;3.60;;;10.40;99.90;;;;;;5037192;28;20472;-60
2022/01/03 00:04:16;;;;;;;8.32;3.75;;;10.30;99.90;;;;;;5055519;28;20150;-61
2022/01/03 00:07:00;;;;;;;;;;;10.30;99.90;;;;;;5056775;28;20075;-63
2022/01/03 00:09:45;;;;;;;4.20;2.53;;;10.10;99.90;;;;;;5056406;28;19974;-61
2022/01/03 00:12:30;;;;;;;4.07;2.40;;;10.00;99.90;;;;;;5056135;28;20090;-61
2022/01/03 00:15:15;;;;;;;4.55;2.20;;;10.00;99.90;;;;;;5056378;28;20072;-61
2022/01/03 00:17:59;;;;;;;5.63;2.20;;;10.00;99.90;;;;;;5046334;28;20059;-60
2022/01/03 00:20:51;;;;;;;4.07;2.10;;;9.90;99.90;;;;;;5056934;28;20102;-60
2022/01/03 00:23:38;;;;;;;3.88;1.95;;;9.80;99.90;;;;;;5056092;28;20574;-58
2022/01/03 00:26:24;;;;;;;3.15;1.98;;;9.60;99.90;;;;;;5057464;28;20048;-59
2022/01/03 00:29:10;;;;;;;4.38;2.30;;;9.60;99.90;;;;;;5056173;28;20443;-59
2022/01/03 00:31:56;;;;;;;4.63;2.47;;;9.60;99.90;;;;;;5057918;28;20036;-57
2022/01/03 00:34:40;;;;;;;2.42;1.70;;;9.40;99.90;;;;;;5057328;28;20068;-56
2022/01/03 00:37:26;;;;;;;5.35;2.28;;;9.40;99.90;;;;;;5055768;28;20072;-59
2022/01/03 00:40:15;;;;;;;5.22;1.98;;;9.40;99.90;;;;;;5056023;28;20067;-58
2022/01/03 00:42:59;;;;;;;2.45;2.25;;;9.40;99.90;;;;;;5055498;28;20075;-60
2022/01/03 00:45:43;;;;;;;6.40;2.33;;;9.40;99.90;;;;;;5061923;28;20031;-55
2022/01/03 00:48:28;;;;;;;3.75;1.77;;;9.50;99.90;;;;;;5055383;28;20031;-56
2022/01/03 00:51:17;;;;;;;2.85;1.67;;;9.50;99.90;;;;;;5056608;28;20047;-56
2022/01/03 00:54:02;;;;;;;2.13;1.73;;;9.50;99.90;;;;;;5054416;28;20076;-59
2022/01/03 00:56:49;;;;;;;2.90;1.88;;;9.50;99.90;;;;;;5055771;28;20437;-57
2022/01/03 00:59:36;;;;;;;2.83;1.63;;;9.40;99.90;;;;;;5056160;28;20094;-55
2022/01/03 01:02:21;;;;;;;4.82;1.77;;;9.40;99.90;;;;;;5055710;28;20031;-54
2022/01/03 01:05:06;;;;;;;2.15;1.52;;;9.40;99.90;;;;;;5054940;28;20079;-58
2022/01/03 01:07:55;;;;;;;4.97;1.65;;;9.40;99.90;;;;;;5055234;28;20112;-56
2022/01/03 01:10:41;;;;;;;3.08;1.60;;;9.40;99.90;;;;;;5053641;28;20131;-55
2022/01/03 01:13:25;;;;;;;1.55;1.40;;;9.40;99.90;;;;;;5054590;28;20160;-56
2022/01/03 01:16:09;;;;;;;2.17;1.65;;;9.40;99.90;;;;;;5055734;28;20036;-55
2022/01/03 01:18:54;;;;;;;2.92;1.50;;;9.50;99.90;;;;;;5054664;28;20056;-56
2022/01/03 01:21:39;;;;;;;2.22;1.40;;;9.40;99.90;;;;;;5055330;28;20063;-53
2022/01/03 01:24:25;;;;;;;1.92;1.10;;;9.40;99.90;;;;;;5035144;28;20124;-56
2022/01/03 01:30:12;;;;;;;2.67;1.60;;;9.40;99.90;;;;;;5046563;28;20039;-58
2022/01/03 01:33:28;;;;;;;2.78;1.90;;;9.40;99.90;;;;;;5054808;28;20106;-57
2022/01/03 01:36:14;;;;;;;5.40;1.25;;;9.40;99.90;;;;;;5055020;28;20029;-56
2022/01/03 01:39:07;;;;;;;2.05;1.63;;;9.50;99.90;;;;;;5055766;28;20091;-56
2022/01/03 01:41:56;;;;;;;1.65;1.55;;;9.40;99.90;;;;;;5038681;28;20039;-56
2022/01/03 01:44:47;;;;;;;1.90;1.33;;;9.40;99.90;;;;;;5054816;28;20079;-59
2022/01/03 01:47:38;;;;;;;3.05;1.58;;;9.40;99.90;;;;;;5055297;28;20031;-54
2022/01/03 01:50:26;;;;;;;4.72;1.58;;;9.30;99.90;;;;;;5055144;28;20500;-57
2022/01/03 01:53:18;;;;;;;4.30;1.50;;;9.40;99.90;;;;;;5053296;28;20075;-56
2022/01/03 01:56:04;;;;;;;1.50;1.40;;;9.30;99.90;;;;;;5054736;28;20091;-55
2022/01/03 01:59:10;;;;;;;2.88;1.58;;;9.20;99.90;;;;;;5054724;28;20048;-55
2022/01/03 02:02:16;;;;;;;1.85;1.40;;;9.30;99.90;;;;;;5054354;28;20036;-55
2022/01/03 02:05:33;;;;;;;4.43;1.90;;;9.30;99.90;;;;;;5053870;28;20032;-54
2022/01/03 02:08:37;;;;;;;1.80;1.27;;;9.30;99.90;;;;;;5054455;28;20562;-57
2022/01/03 02:11:51;;;;;;;2.40;1.40;;;9.40;99.90;;;;;;5054705;28;20116;-55
2022/01/03 02:14:37;;;;;;;2.58;1.58;;;9.50;99.90;;;;;;5054665;28;20431;-54
2022/01/03 02:17:21;;;;;;;3.42;1.65;;;9.50;99.90;;;;;;5054298;28;20112;-57
2022/01/03 02:20:13;;;;;;;2.28;1.50;;;9.60;99.90;;;;;;5053884;28;20071;-56
2022/01/03 02:22:58;;;;;;;2.53;1.70;;;9.60;99.90;;;;;;5054284;28;20063;-52
2022/01/03 02:25:42;;;;;;;1.70;1.60;;;9.60;99.90;;;;;;5053258;28;20036;-57
2022/01/03 02:28:26;;;;;;;1.95;1.60;;;9.50;99.90;;;;;;5053817;28;20036;-57
2022/01/03 02:31:10;;;;;;;2.55;1.48;;;9.50;99.90;;;;;;5053968;28;20515;-59
2022/01/03 02:33:54;;;;;;;3.38;1.90;;;9.40;99.90;;;;;;5053942;28;20048;-55
2022/01/03 02:36:43;;;;;;;5.50;2.15;;;9.40;99.90;;;;;;5053987;28;20393;-56
2022/01/03 02:39:28;;;;;;;3.55;1.73;;;9.30;99.90;;;;;;5050718;28;20527;-55
2022/01/03 02:42:12;;;;;;;6.65;1.88;;;9.30;99.90;;;;;;5054313;28;20626;-58
2022/01/03 02:45:09;;;;;;;3.13;1.60;;;9.30;99.90;;;;;;5054185;28;20127;-57
2022/01/03 02:47:59;;;;;;;2.75;1.90;;;9.40;99.90;;;;;;5053043;28;20039;-52
2022/01/03 02:50:43;;;;;;;2.50;2.03;;;9.40;99.90;;;;;;5053434;28;20032;-56
2022/01/03 02:53:27;;;;;;;1.85;1.52;;;9.40;99.90;;;;;;5053130;28;20043;-53
2022/01/03 02:56:12;;;;;;;3.80;2.30;;;9.40;99.90;;;;;;5053746;28;20032;-57
2022/01/03 02:58:56;;;;;;;2.63;2.00;;;9.40;99.90;;;;;;5053423;28;20557;-57
2022/01/03 03:01:43;;;;;;;3.03;2.17;;;9.40;99.90;;;;;;5051604;28;20063;-57
2022/01/03 03:04:28;;;;;;;4.93;1.95;;;9.40;99.90;;;;;;5053273;28;20086;-58
2022/01/03 03:07:19;;;;;;;2.50;1.88;;;9.40;99.90;;;;;;5053894;28;20039;-56
2022/01/03 03:10:10;;;;;;;4.10;2.08;;;9.40;99.90;;;;;;5053688;28;20087;-55
2022/01/03 03:12:54;;;;;;;3.17;2.00;;;9.30;99.90;;;;;;5053496;28;20035;-54
2022/01/03 03:15:39;;;;;;;2.55;2.00;;;9.30;99.90;;;;;;5052287;28;20110;-58
2022/01/03 03:18:24;;;;;;;2.25;2.00;;;9.30;99.90;;;;;;5052805;28;20074;-53
2022/01/03 03:21:08;;;;;;;4.85;2.40;;;9.30;99.90;;;;;;5054011;28;20611;-56
2022/01/03 03:23:52;;;;;;;4.15;2.40;;;9.30;99.90;;;;;;5049865;28;20121;-56
2022/01/03 03:26:36;;;;;;;5.10;2.10;;;9.30;99.90;;;;;;5053602;28;20116;-56
2022/01/03 03:29:20;;;;;;;2.20;2.00;;;9.30;99.90;;;;;;5053462;28;20031;-54
2022/01/03 03:32:04;;;;;;;4.70;2.20;;;9.40;99.90;;;;;;5055345;28;20036;-54
2022/01/03 03:34:49;;;;;;;3.88;2.20;;;9.30;99.90;;;;;;5056024;28;20512;-55
2022/01/03 03:37:33;;;;;;;4.25;2.20;;;9.40;99.90;;;;;;5056566;28;20577;-56
2022/01/03 03:40:17;;;;;;;4.95;2.20;;;9.50;99.90;;;;;;5057414;28;20071;-58
2022/01/03 03:43:01;;;;;;;3.42;2.53;;;9.40;99.90;;;;;;5057276;28;20036;-53
2022/01/03 03:45:48;;;;;;;2.58;2.20;;;9.50;99.90;;;;;;5057176;28;20083;-56
2022/01/03 03:48:34;;;;;;;5.22;2.28;;;9.60;99.90;;;;;;5055711;28;20040;-54
2022/01/03 03:51:18;;;;;;;8.63;3.67;;;9.70;99.90;;;;;;5057485;28;20099;-58
2022/01/03 03:54:02;;;;;;;4.00;2.33;;;9.70;99.90;;;;;;5045048;28;20447;-57
2022/01/03 03:56:47;;;;;;;3.30;2.27;;;9.70;99.90;;;;;;5057005;28;20036;-56
2022/01/03 03:59:31;;;;;;;5.03;2.50;;;9.60;99.90;;;;;;5056811;28;20052;-56
2022/01/03 04:02:16;;;;;;;3.40;2.50;;;9.60;99.90;;;;;;5057330;28;20118;-57
2022/01/03 04:05:00;;;;;;;3.53;2.42;;;9.60;99.90;;;;;;5057414;28;20111;-53
2022/01/03 04:07:44;;;;;;;3.22;2.40;;;9.60;99.90;;;;;;5055889;28;20040;-56
2022/01/03 04:10:28;;;;;;;3.72;2.50;;;9.70;99.90;;;;;;5056469;28;20636;-54
2022/01/03 04:13:12;;;;;;;4.55;2.70;;;9.70;99.90;;;;;;5056919;28;20055;-57
2022/01/03 04:15:56;;;;;;;3.90;2.80;;;9.70;99.90;;;;;;5056419;28;20063;-53
2022/01/03 04:18:40;;;;;;;4.33;2.50;;;9.70;99.90;;;;;;5042627;28;20071;-54
2022/01/03 04:21:25;;;;;;;3.97;2.60;;;9.80;99.90;;;;;;5056076;28;20275;-58
2022/01/03 04:24:11;;;;;;;6.05;2.80;;;9.70;99.90;;;;;;5053314;28;20035;-55
2022/01/03 04:26:55;;;;;;;5.57;3.15;;;9.70;99.90;;;;;;5055345;28;20569;-54
2022/01/03 04:29:39;;;;;;;4.30;2.73;;;9.70;99.90;;;;;;5045107;28;20086;-58
2022/01/03 04:32:23;;;;;;;4.07;3.07;;;9.80;99.90;;;;;;5056089;28;20063;-57
2022/01/03 04:35:08;;;;;;;4.70;2.88;;;9.70;99.90;;;;;;5057132;28;20404;-59
2022/01/03 04:37:52;;;;;;;3.67;2.83;;;9.70;99.90;;;;;;5057178;28;20094;-56
2022/01/03 04:40:36;;;;;;;3.72;2.42;;;9.60;99.90;;;;;;5056934;28;20040;-54
2022/01/03 04:43:20;;;;;;;4.87;2.70;;;9.60;99.90;;;;;;5055371;28;20048;-56
2022/01/03 04:46:04;;;;;;;4.82;2.83;;;9.50;99.90;;;;;;5055005;28;20055;-53
2022/01/03 04:48:48;;;;;;;3.47;2.50;;;9.50;99.90;;;;;;5055447;28;20044;-55
2022/01/03 04:51:32;;;;;;;6.35;3.05;;;9.40;99.90;;;;;;5055684;28;20086;-56
2022/01/03 04:54:16;;;;;;;3.08;2.70;;;9.40;99.90;;;;;;5055915;28;20106;-55
2022/01/03 04:57:00;;;;;;;4.67;3.27;;;9.50;99.90;;;;;;5056951;28;20044;-56
2022/01/03 04:59:45;;;;;;;3.70;2.90;;;9.40;99.90;;;;;;5055844;28;20400;-56
2022/01/03 05:02:29;;;;;;;4.72;3.30;;;9.30;99.90;;;;;;5055601;28;20115;-54
2022/01/03 05:05:14;;;;;;;4.85;3.00;;;9.20;99.90;;;;;;5055148;28;20118;-55
2022/01/03 05:07:58;;;;;;;4.28;3.13;;;9.20;99.90;;;;;;5055379;28;20111;-56
2022/01/03 05:10:41;;;;;;;4.25;3.35;;;9.20;99.90;;;;;;5055611;28;20036;-55
2022/01/03 05:13:26;;;;;;;4.68;3.30;;;9.20;99.90;;;;;;5055623;28;20590;-56
2022/01/03 05:16:10;;;;;;;5.07;3.40;;;9.10;99.90;;;;;;5054601;28;20044;-56
2022/01/03 05:18:54;;;;;;;10.73;3.88;;;9.20;99.90;;;;;;5055159;28;20506;-57
2022/01/03 05:21:38;;;;;;;5.60;3.63;;;9.20;99.90;;;;;;5054922;28;20083;-56
2022/01/03 05:24:22;;;;;;;6.30;3.40;;;9.20;99.90;;;;;;5054702;28;20051;-56
2022/01/03 05:27:06;;;;;;;5.05;3.63;;;9.10;99.90;;;;;;5055027;28;20317;-56
2022/01/03 05:29:50;;;;;;;5.77;3.63;;;9.10;99.90;;;;;;5055451;28;20099;-57
2022/01/03 05:32:35;;;;;;;8.23;4.05;;;9.10;99.90;;;;;;5054824;28;20083;-56
2022/01/03 05:35:19;;;;;;;9.52;4.00;;;9.10;99.90;;;;;;5054888;28;20116;-58
2022/01/03 05:38:03;;;;;;;10.00;4.93;;;9.20;99.90;;;;;;5055237;28;20567;-58
2022/01/03 05:40:47;;;;;;;5.03;3.60;;;9.30;99.90;;;;;;5055341;28;20040;-53
2022/01/03 05:43:31;;;;;;;4.88;4.05;;;9.30;99.90;;;;;;5054961;28;20060;-54
2022/01/03 05:46:16;;;;;;;9.38;4.35;;;9.20;99.90;;;;;;5054627;28;20086;-57
2022/01/03 05:49:00;;;;;;;7.70;3.63;;;9.10;99.90;;;;;;5054633;28;20086;-57
2022/01/03 05:51:45;;;;;;;7.88;4.40;;;9.20;99.90;;;;;;5034998;28;20512;-57
2022/01/03 05:54:29;;;;;;;5.53;3.88;;;9.20;99.90;;;;;;5035936;28;20091;-57
2022/01/03 05:57:13;;;;;;;8.00;4.43;;;9.10;99.90;;;;;;5055158;28;20039;-57
2022/01/03 05:59:57;;;;;;;8.73;4.40;;;9.10;99.90;;;;;;5054356;28;20511;-53
2022/01/03 06:02:42;;;;;;;7.55;3.88;;;9.10;99.90;;;;;;5055346;28;20534;-55
2022/01/03 06:05:42;;;;;;;8.48;3.65;;;9.30;99.90;;;;;;5054735;28;20048;-55
2022/01/03 06:08:27;;;;;;;7.38;3.60;;;9.30;99.90;;;;;;5055632;28;20044;-57
2022/01/03 06:11:11;;;;;;;6.15;3.42;;;9.40;99.90;;;;;;5055039;28;20040;-56
2022/01/03 06:13:55;;;;;;;6.97;3.40;;;9.40;99.90;;;;;;5055982;28;20090;-56
2022/01/03 06:16:39;;;;;;;5.80;3.13;;;9.40;99.90;;;;;;5054652;28;20063;-56
2022/01/03 06:19:24;;;;;;;13.75;3.35;;;9.30;99.90;;;;;;5054223;28;20302;-55
2022/01/03 06:22:09;;;;;;;5.03;3.40;;;9.30;99.90;;;;;;5047617;28;20040;-56
2022/01/03 06:24:53;;;;;;;;;;;9.30;99.90;;;;;;5054547;28;20120;-57
2022/01/03 06:27:38;;;;;;;6.22;2.80;;;9.30;99.90;;;;;;5054596;28;20007;-59
2022/01/03 06:30:22;;;;;;;;;;;9.30;99.90;;;;;;5054294;28;20028;-56
2022/01/03 06:33:07;;;;;;;11.05;4.05;;;9.20;99.90;;;;;;5038494;28;19997;-57
2022/01/03 06:35:52;;;;;;;9.07;3.55;;;9.20;99.90;;;;;;5053771;28;20052;-56
2022/01/03 06:38:36;;;;;;;9.80;3.70;;;9.10;99.90;;;;;;5052815;28;20044;-58
2022/01/03 06:41:20;;;;;;;11.02;3.85;;;9.20;99.90;;;;;;5054539;28;20082;-56
2022/01/03 06:44:04;;;;;;;9.67;3.07;;;9.20;99.90;;;;;;5054226;28;20404;-57
2022/01/03 06:46:49;;;;;;;7.55;3.05;;;9.20;99.90;;;;;;5054009;28;20112;-56
2022/01/03 06:49:33;;;;;;;7.27;3.63;;;9.10;99.90;;;;;;5053570;28;20035;-58
2022/01/03 06:52:17;;;;;;;8.30;4.37;;;9.20;99.90;;;;;;5052843;28;20554;-55
2022/01/03 06:55:03;;;;;;;8.32;3.22;;;9.10;99.90;;;;;;5053964;28;20032;-58
2022/01/03 06:57:47;;;;;;;7.28;3.30;;;9.10;99.90;;;;;;5053070;28;20110;-55
2022/01/03 07:00:31;;;;;;;9.68;3.47;;;9.10;99.90;;;;;;5053088;28;20581;-57
2022/01/03 07:03:15;;;;;;;7.97;3.30;;;9.00;99.90;;;;;;5053419;28;20689;-55
2022/01/03 07:05:59;;;;;;;7.07;3.13;;;8.90;99.90;;;;;;5053753;28;20519;-55
2022/01/03 07:08:43;;;;;;;9.68;3.67;;;8.90;99.90;;;;;;5053656;28;20087;-56
2022/01/03 07:11:27;;;;;;;9.10;3.55;;;8.90;99.90;;;;;;5052286;28;20397;-57
2022/01/03 07:20:11;;;;;;;8.90;3.28;;;8.70;99.90;;;;;;5053358;28;20405;-59
2022/01/03 07:22:55;;;;;;;7.53;4.03;;;8.70;99.90;;;;;;5053427;28;20443;-53
2022/01/03 07:25:39;;;;;;;8.57;3.28;;;8.70;99.90;;;;;;5052172;28;20040;-57
2022/01/03 07:28:23;;;;;;;5.10;3.33;;;8.80;99.90;;;;;;5053117;28;20503;-57
2022/01/03 07:31:08;;;;;;;9.33;4.13;;;8.90;99.90;;;;;;5053299;28;20094;-57
2022/01/03 07:33:52;;;;;;;9.52;3.28;;;8.90;99.90;;;;;;5052720;28;20031;-57
2022/01/03 07:36:36;;;;;;;7.93;3.80;;;8.90;99.90;;;;;;5052843;28;20032;-58
2022/01/03 07:39:20;;;;;;;11.15;4.10;;;8.80;99.90;;;;;;5053226;28;20058;-56
2022/01/03 07:42:05;;;;;;;6.35;3.00;;;8.80;99.90;;;;;;5053103;28;20056;-55
2022/01/03 07:44:49;;;;;;;8.18;4.13;;;8.80;99.90;;;;;;5053032;28;20039;-57
2022/01/03 07:47:33;;;;;;;10.70;3.72;;;8.80;99.90;;;;;;5054240;28;20036;-58
2022/01/03 07:50:17;;;;;;;13.45;3.80;;;8.80;99.90;;;;;;5053222;28;20131;-57
2022/01/03 07:53:02;;;;;;;11.98;3.65;;;8.80;99.90;;;;;;5052819;28;20519;-54
2022/01/03 07:55:46;;;;;;;7.05;3.50;;;8.80;99.90;;;;;;5054419;28;20396;-57
2022/01/03 07:58:31;;;;;;;10.15;3.40;;;8.80;99.90;;;;;;5052848;28;20063;-56
2022/01/03 08:01:15;;;;;;;9.18;3.50;;;8.80;99.90;;;;;;5052750;28;20032;-55
2022/01/03 08:03:59;;;;;;;10.13;3.65;;;8.80;99.90;;;;;;5052162;28;20190;-55
2022/01/03 08:06:43;;;;;;;13.90;3.53;;;8.80;99.90;;;;;;5052343;28;20074;-56
2022/01/03 08:09:27;;;;;;;13.27;3.87;;;8.90;99.90;;;;;;5052260;28;20037;-57
2022/01/03 08:12:11;;;;;;;14.70;4.43;;;8.80;99.90;;;;;;5039423;28;20064;-55
2022/01/03 08:14:56;;;;;;;8.98;3.17;;;8.80;99.90;;;;;;5052059;28;20571;-57
2022/01/03 08:17:40;;;;;;;8.57;3.30;;;8.90;99.90;;;;;;5054232;28;20048;-56
2022/01/03 08:20:25;;;;;;;13.30;3.57;;;8.80;99.90;;;;;;5056970;28;20059;-57
2022/01/03 08:23:09;;;;;;;12.32;4.28;;;8.80;99.90;;;;;;5056065;28;20075;-58
2022/01/03 08:25:53;;;;;;;7.32;3.20;;;8.90;99.90;;;;;;5055665;28;20052;-56
2022/01/03 08:28:37;;;;;;;12.63;3.97;;;8.90;99.90;;;;;;5056383;28;20114;-57
2022/01/03 08:31:22;;;;;;;10.63;3.97;;;9.00;99.90;;;;;;5054955;28;20086;-56
2022/01/03 08:34:07;;;;;;;13.57;3.92;;;9.00;99.90;;;;;;5055666;28;20062;-59
2022/01/03 08:36:51;;;;;;;11.05;3.72;;;9.00;99.90;;;;;;5056466;28;20116;-57
2022/01/03 08:39:36;;;;;;;7.72;3.10;;;9.00;99.90;;;;;;5037088;28;20448;-55
2022/01/03 08:42:20;;;;;;;;;;;9.10;99.90;;;;;;5039019;28;20056;-56
2022/01/03 08:45:05;;;;;;;11.20;3.78;;;9.00;99.90;;;;;;5055815;28;19967;-56
2022/01/03 08:47:49;;;;;;;14.15;4.32;;;9.10;99.90;;;;;;5055850;28;20588;-56
2022/01/03 08:50:33;;;;;;;13.13;3.63;;;9.20;99.90;;;;;;5056198;28;20116;-56
2022/01/03 08:53:18;;;;;;;9.65;3.67;;;9.20;99.90;;;;;;5055810;28;20163;-54
2022/01/03 08:56:03;;;;;;;13.70;3.85;;;9.10;99.90;;;;;;5056115;28;20537;-57
2022/01/03 08:58:48;;;;;;;9.32;3.67;;;9.10;99.90;;;;;;5056410;28;20036;-56
2022/01/03 09:01:32;;;;;;;12.63;3.75;;;9.20;99.90;;;;;;5055856;28;20060;-57
2022/01/03 09:04:16;;;;;;;10.35;4.20;;;9.30;99.90;;;;;;5054463;28;20120;-58
2022/01/03 09:07:00;;;;;;;9.77;4.85;;;9.40;99.90;;;;;;5055744;28;20040;-57
2022/01/03 09:09:44;;;;;;;11.80;3.90;;;9.50;99.90;;;;;;5056130;28;20037;-59
2022/01/03 09:12:29;;;;;;;8.77;3.70;;;9.50;99.90;;;;;;5054773;28;20119;-56
2022/01/03 09:15:13;;;;;;;12.10;3.83;;;9.60;99.90;;;;;;5055160;28;20267;-56
2022/01/03 09:17:57;;;;;;;8.95;3.70;;;9.70;99.90;;;;;;5054534;28;20076;-57
2022/01/03 09:20:41;;;;;;;10.65;3.92;;;9.70;99.90;;;;;;5055294;28;20044;-55
2022/01/03 09:23:30;;;;;;;10.37;3.50;;;9.70;99.90;;;;;;5054959;28;20055;-53
2022/01/03 09:29:18;;;;;;;9.02;3.28;;;9.90;99.90;;;;;;5055353;28;20114;-54
2022/01/03 09:32:03;;;;;;;13.23;4.20;;;10.00;99.90;;;;;;5055848;28;20108;-56
2022/01/03 09:34:47;;;;;;;10.38;3.55;;;10.00;99.90;;;;;;5054848;28;20043;-54
2022/01/03 09:37:33;;;;;;;8.20;2.95;;;9.90;99.90;;;;;;5055079;28;20509;-57
2022/01/03 09:40:18;;;;;;;10.27;3.47;;;10.10;99.90;;;;;;5055063;28;20040;-55
2022/01/03 09:43:03;;;;;;;;;;;10.20;99.90;;;;;;5054701;28;20063;-56
2022/01/03 09:45:48;;;;;;;10.68;4.25;;;10.10;99.90;;;;;;5052427;28;19924;-57
2022/01/03 09:48:33;;;;;;;;;;;10.00;99.90;;;;;;5055652;28;20036;-58
2022/01/03 09:51:22;;;;;;;13.23;3.35;;;10.00;99.90;;;;;;5054272;28;19923;-59
2022/01/03 09:54:11;;;;;;;10.20;3.85;;;10.00;99.90;;;;;;5054085;28;20068;-58
2022/01/03 09:56:58;;;;;;;16.38;3.83;;;10.10;99.90;;;;;;5053987;28;20083;-55
2022/01/03 09:59:43;;;;;;;9.55;3.22;;;10.10;99.90;;;;;;5034425;28;20033;-58
2022/01/03 10:02:28;;;;;;;9.45;3.45;;;10.10;99.90;;;;;;5049640;28;20420;-57
2022/01/03 10:05:13;;;;;;;8.55;3.58;;;10.20;99.90;;;;;;5052363;28;20531;-58
2022/01/03 10:07:57;;;;;;;;;;;10.30;99.90;;;;;;5036212;28;20545;-58
2022/01/03 10:10:43;;;;;;;8.25;3.55;;;10.30;99.90;;;;;;5033021;28;20331;-58
2022/01/03 10:13:28;;;;;;;9.10;3.05;;;10.30;99.90;;;;;;5019263;28;20041;-59
2022/01/03 10:16:12;;;;;;;7.55;3.00;;;10.60;99.90;;;;;;5039925;28;20114;-59
2022/01/03 10:18:57;;;;;;;7.47;3.05;;;10.40;99.90;;;;;;5054207;28;20047;-55
2022/01/03 10:21:44;;;;;;;8.52;3.70;;;10.40;99.90;;;;;;5050592;28;20028;-56
2022/01/03 10:24:38;;;;;;;10.80;3.83;;;10.40;99.90;;;;;;5037503;28;20137;-57
2022/01/03 10:27:42;;;;;;;15.35;4.05;;;10.50;99.90;;;;;;5033009;28;20396;-54
2022/01/03 10:30:38;;;;;;;12.45;3.50;;;10.50;99.90;;;;;;5048042;28;20128;-57
2022/01/03 10:33:23;;;;;;;;;;;10.70;99.90;;;;;;5053101;28;20558;-55
2022/01/03 10:36:11;;;;;;;9.32;3.38;;;10.60;99.90;;;;;;5049676;28;19920;-52
2022/01/03 10:38:57;;;;;;;13.45;3.35;;;10.60;99.90;;;;;;5052523;28;20044;-55
2022/01/03 10:41:43;;;;;;;10.05;3.55;;;10.60;99.90;;;;;;5050760;28;20074;-55
2022/01/03 10:44:37;;;;;;;7.85;3.10;;;10.70;99.90;;;;;;5053161;28;20043;-58
2022/01/03 10:47:34;;;;;;;11.23;3.97;;;10.80;99.90;;;;;;5053866;28;20048;-58
2022/01/03 10:50:20;;;;;;;12.27;3.83;;;10.80;99.90;;;;;;5054640;28;20091;-56
2022/01/03 10:53:04;;;;;;;12.23;5.10;;;10.90;99.90;;;;;;5054117;28;20492;-55
2022/01/03 10:55:48;;;;;;;8.67;3.33;;;10.80;99.90;;;;;;5054956;28;20131;-55
2022/01/03 10:58:33;;;;;;;12.70;4.35;;;10.70;99.90;;;;;;5053755;28;20373;-57
2022/01/03 11:01:21;;;;;;;;;;;10.60;99.90;;;;;;5053865;28;20062;-54
2022/01/03 11:04:06;;;;;;;7.22;2.88;;;10.70;99.90;;;;;;5053093;28;19920;-53
2022/01/03 11:13:20;;;;;;;8.32;3.47;;;10.70;99.90;;;;;;5052824;28;20040;-59
2022/01/03 11:16:06;;;;;;;9.10;3.33;;;10.80;99.90;;;;;;5052794;28;20052;-59
2022/01/03 11:18:51;;;;;;;8.90;3.20;;;10.70;99.90;;;;;;5052222;28;20455;-60
2022/01/03 11:21:44;;;;;;;6.60;3.05;;;10.70;99.90;;;;;;5052691;28;20106;-52
2022/01/03 11:24:28;;;;;;;7.20;2.83;;;10.80;99.90;;;;;;5053234;28;20451;-59
2022/01/03 11:27:12;;;;;;;9.02;3.10;;;10.80;99.90;;;;;;5052689;28;20036;-60
2022/01/03 11:29:56;;;;;;;6.40;2.77;;;10.90;99.90;;;;;;5052636;28;20563;-57
2022/01/03 11:32:43;;;;;;;5.75;3.10;;;11.00;99.90;;;;;;5051605;28;20263;-56
2022/01/03 11:35:27;;;;;;;6.65;2.92;;;11.20;99.90;;;;;;5051535;28;20090;-59
2022/01/03 11:38:21;;;;;;;8.18;3.17;;;11.20;99.90;;;;;;5051647;28;20040;-55
2022/01/03 11:41:09;;;;;;;8.65;2.80;;;11.20;99.90;;;;;;5052899;28;20528;-57
2022/01/03 11:43:54;;;;;;;8.98;3.10;;;11.10;99.90;;;;;;5052525;28;20139;-56
2022/01/03 11:46:40;;;;;;;7.82;3.17;;;11.00;99.90;;;;;;5051416;28;20060;-58
2022/01/03 11:49:25;;;;;;;8.23;3.10;;;10.90;99.90;;;;;;5053755;28;20035;-57
2022/01/03 11:52:14;;;;;;;8.25;3.50;;;10.90;99.90;;;;;;5053717;28;20426;-58
2022/01/03 11:54:59;;;;;;;6.57;2.90;;;10.90;99.90;;;;;;5055925;28;20175;-60
2022/01/03 12:04:14;;;;;;;8.32;2.72;;;11.10;99.90;;;;;;5047334;28;20064;-56
2022/01/03 12:07:10;;;;;;;7.00;2.83;;;11.20;99.90;;;;;;5054134;28;20036;-59
2022/01/03 12:10:09;;;;;;;9.27;2.88;;;11.20;99.90;;;;;;5056920;28;20028;-58
2022/01/03 12:12:59;;;;;;;13.98;3.42;;;11.10;99.90;;;;;;5054891;28;20040;-59
2022/01/03 12:15:43;;;;;;;6.32;2.80;;;11.10;99.90;;;;;;5056821;28;20388;-60
2022/01/03 12:18:29;;;;;;;9.73;2.97;;;11.10;99.90;;;;;;5056404;28;20106;-58
2022/01/03 12:21:49;;;;;;;10.05;2.90;;;11.10;99.90;;;;;;5056440;28;20039;-60
2022/01/03 12:24:44;;;;;;;5.60;2.80;;;11.20;99.90;;;;;;5036275;28;20555;-59
2022/01/03 12:27:39;;;;;;;8.45;2.50;;;11.20;99.90;;;;;;5037115;28;20080;-56
2022/01/03 12:30:27;;;;;;;5.18;2.60;;;11.10;99.90;;;;;;5036439;28;20028;-57
2022/01/03 12:33:13;;;;;;;7.35;2.45;;;11.00;99.90;;;;;;5035957;28;20523;-55
2022/01/03 12:36:16;;;;;;;7.07;2.50;;;10.80;99.90;;;;;;5036640;28;20037;-59
2022/01/03 12:39:08;;;;;;;6.68;2.47;;;10.80;99.90;;;;;;5036548;28;20032;-57
2022/01/03 12:41:54;;;;;;;10.05;3.85;;;10.80;99.90;;;;;;5036589;28;20079;-58
2022/01/03 12:44:50;;;;;;;6.80;2.85;;;11.00;99.90;;;;;;5037015;28;20509;-59
2022/01/03 12:47:38;;;;;;;;;;;11.10;99.90;;;;;;5037284;28;20127;-60
2022/01/03 12:50:27;;;;;;;6.25;2.75;;;11.10;99.90;;;;;;5039400;28;19954;-58
2022/01/03 12:53:32;;;;;;;8.23;3.30;;;11.10;99.90;;;;;;5056532;28;20522;-59
2022/01/03 12:56:19;;;;;;;6.35;2.83;;;11.00;99.90;;;;;;5056223;28;20094;-60
2022/01/03 12:59:13;;;;;;;5.53;2.53;;;11.00;99.90;;;;;;5057550;28;20067;-59
2022/01/03 13:02:24;;;;;;;8.25;2.70;;;11.00;99.90;;;;;;5056946;28;20084;-58
2022/01/03 13:05:11;;;;;;;4.75;2.22;;;11.00;99.90;;;;;;5055286;28;20074;-60
2022/01/03 13:07:55;;;;;;;6.40;2.55;;;11.00;99.90;;;;;;5055011;28;20508;-58
2022/01/03 13:10:39;;;;;;;7.90;2.53;;;11.00;99.90;;;;;;5055537;28;20132;-55
2022/01/03 13:13:28;;;;;;;5.00;2.80;;;11.10;99.90;;;;;;5054224;28;20071;-55
2022/01/03 13:16:19;;;;;;;5.57;2.33;;;11.00;99.90;;;;;;5055923;28;20052;-59
2022/01/03 13:19:12;;;;;;;6.20;2.75;;;11.00;99.90;;;;;;5055643;28;20407;-59
2022/01/03 13:22:02;;;;;;;8.73;2.95;;;10.90;99.90;;;;;;5055373;28;20071;-57
2022/01/03 13:24:47;;;;;;;6.47;2.90;;;10.80;99.90;;;;;;5055478;28;20036;-58
2022/01/03 13:27:31;;;;;;;9.43;3.00;;;10.80;99.90;;;;;;5055898;28;20090;-59
2022/01/03 13:30:15;;;;;;;9.40;3.47;;;10.90;99.90;;;;;;5055275;28;20060;-58
2022/01/03 13:32:59;;;;;;;9.77;2.63;;;10.80;99.90;;;;;;5054907;28;20464;-58
2022/01/03 13:36:05;;;;;;;10.82;3.17;;;10.80;99.90;;;;;;5055327;28;20075;-60
2022/01/03 13:38:49;;;;;;;8.07;3.13;;;10.80;99.90;;;;;;5056238;28;20035;-58
2022/01/03 13:41:35;;;;;;;10.47;2.90;;;10.80;99.90;;;;;;5055841;28;20087;-59
2022/01/03 13:44:49;;;;;;;10.30;3.67;;;10.80;99.90;;;;;;5055097;28;20044;-58
2022/01/03 13:50:39;;;;;;;7.57;2.80;;;10.70;99.90;;;;;;5055218;28;20089;-60
2022/01/03 13:53:23;;;;;;;10.90;3.25;;;11.00;99.90;;;;;;5067455;28;20112;-60
2022/01/03 13:56:07;;;;;;;9.95;2.90;;;11.20;99.90;;;;;;5054817;28;20120;-59
2022/01/03 13:58:51;;;;;;;5.82;2.80;;;11.40;99.90;;;;;;5054592;28;20036;-61
2022/01/03 14:01:35;;;;;;;8.15;2.88;;;11.50;99.90;;;;;;5054480;28;20115;-59
2022/01/03 14:04:21;;;;;;;5.38;2.45;;;11.20;99.90;;;;;;5054159;28;20044;-61
2022/01/03 14:07:11;;;;;;;8.18;2.65;;;11.00;99.90;;;;;;5054361;28;20503;-58
2022/01/03 14:09:58;;;;;;;5.60;2.33;;;10.90;99.90;;;;;;5054027;28;20070;-57
2022/01/03 14:12:52;;;;;;;5.57;2.88;;;10.80;99.90;;;;;;5047064;28;20120;-54
2022/01/03 14:15:37;;;;;;;4.25;2.35;;;10.60;99.90;;;;;;5045513;28;20057;-59
2022/01/03 14:18:34;;;;;;;6.53;2.50;;;10.50;99.90;;;;;;5048010;28;20086;-56
2022/01/03 14:21:32;;;;;;;7.55;2.75;;;10.50;99.90;;;;;;5053533;28;20507;-55
2022/01/03 14:24:18;;;;;;;6.47;2.35;;;10.40;99.90;;;;;;5052029;28;20058;-57
2022/01/03 14:27:06;;;;;;;8.40;2.83;;;10.40;99.90;;;;;;5052288;28;20534;-56
2022/01/03 14:29:50;;;;;;;4.90;2.63;;;10.30;99.90;;;;;;5052390;28;20035;-58
2022/01/03 14:32:38;;;;;;;10.03;3.23;;;10.30;99.90;;;;;;5050814;28;20094;-54
2022/01/03 14:35:46;;;;;;;5.53;2.72;;;10.30;99.90;;;;;;5046515;28;20048;-53
2022/01/03 14:38:31;;;;;;;8.60;3.58;;;10.20;99.90;;;;;;5052572;28;20067;-53
2022/01/03 14:41:20;;;;;;;;;;;10.30;99.90;;;;;;5044758;28;20060;-64
2022/01/03 14:44:06;;;;;;;6.55;3.10;;;10.40;99.90;;;;;;5052595;28;19928;-54
2022/01/03 14:47:11;;;;;;;8.52;3.15;;;10.20;99.90;;;;;;5052845;28;20071;-64
2022/01/03 14:50:01;;;;;;;7.53;3.28;;;10.10;99.90;;;;;;5050126;28;20031;-53
2022/01/03 14:52:46;;;;;;;6.68;2.80;;;10.20;99.90;;;;;;5046472;28;20405;-58
2022/01/03 14:55:38;;;;;;;;;;;10.30;99.90;;;;;;5052022;28;20059;-57
2022/01/03 14:58:22;;;;;;;6.00;2.65;;;10.40;99.90;;;;;;5053758;28;19915;-58
2022/01/03 15:01:06;;;;;;;11.27;3.00;;;10.30;99.90;;;;;;5054440;28;20064;-60
2022/01/03 15:03:50;;;;;;;9.75;3.45;;;10.20;99.90;;;;;;5052023;28;20102;-54
2022/01/03 15:06:34;;;;;;;9.80;2.90;;;10.30;99.90;;;;;;5053232;28;20048;-56